Terminal Aerodrome Forecast
Issued by NWS

Home | Current Version | Previous Version | Text Only | Print | Product List | Glossary On
Versions: 1 2 3 4 5 6 7 8 9 10 11 12 13 14 15 16 17 18 19 20 21 22 23 24 25 26 27 28 29 30 31 32
000
FTPA31 PHFO 261518 AAB
TAFMDY
TAF AMD
PMDY 261518Z 2615/2712 01010KT P6SM VCSH SCT020 BKN040
      TEMPO 2615/2617 35012G18KT -SHRA SCT018 BKN030=

USA.gov is the U.S. government's official web portal to all federal, state and local government web resources and services.